Time;durP1;ratioP1;P1;durP2;ratioP2;P2;SDS_P1;SDS_P2;PMS_P1;PMS_P2;Temp;Humidity;BMP_temperature;BMP_pressure;BME280_temperature;BME280_humidity;BME280_pressure;Samples;Min_cycle;Max_cycle;Signal;HPM_P1;HPM_P2
2022/12/25 00:01:13;;;;;;;207.18;77.50;;;;;;;9.20;84.71;99203.41;4929525;29;20056;-62
2022/12/25 00:04:09;;;;;;;197.93;74.10;;;;;;;9.03;85.70;99202.84;4933872;29;20113;-61
2022/12/25 00:06:45;;;;;;;184.50;71.15;;;;;;;9.21;85.38;99199.72;4929818;29;20052;-61
2022/12/25 00:09:39;;;;;;;184.10;71.68;;;;;;;8.89;85.98;99195.72;4945717;29;20108;-61
2022/12/25 00:12:15;;;;;;;184.07;71.22;;;;;;;8.95;86.17;99194.94;4948333;29;20523;-61
2022/12/25 00:15:05;;;;;;;205.98;74.75;;;;;;;9.30;84.89;99192.34;4943196;28;20059;-62
2022/12/25 00:17:54;;;;;;;196.05;72.10;;;;;;;9.12;85.08;99188.28;4938448;29;20063;-62
2022/12/25 00:20:43;;;;;;;214.75;74.45;;;;;;;8.80;85.91;99198.50;4931685;29;20059;-62
2022/12/25 00:23:33;;;;;;;191.82;71.43;;;;;;;9.16;85.03;99207.50;4929153;29;20147;-61
2022/12/25 00:26:17;;;;;;;200.38;73.30;;;;;;;9.40;84.35;99208.91;4945111;29;20053;-61
2022/12/25 00:29:06;;;;;;;189.27;70.75;;;;;;;9.34;84.65;99205.19;4930657;29;20062;-62
2022/12/25 00:31:48;;;;;;;185.63;69.68;;;;;;;9.16;84.67;99207.50;4942082;29;20062;-62
2022/12/25 00:34:37;;;;;;;179.40;68.45;;;;;;;9.04;85.25;99215.22;4945743;29;20509;-61
2022/12/25 00:37:19;;;;;;;198.80;71.80;;;;;;;9.17;85.16;99209.97;4911558;29;20083;-61
2022/12/25 00:40:08;;;;;;;187.07;68.00;;;;;;;9.04;84.97;99209.84;4929191;29;20063;-59
2022/12/25 00:42:50;;;;;;;202.98;70.88;;;;;;;8.75;86.26;99216.13;4935121;29;20067;-61
2022/12/25 00:45:45;;;;;;;176.55;66.78;;;;;;;8.59;86.89;99217.22;4940804;28;20127;-61
2022/12/25 00:48:21;;;;;;;190.43;67.93;;;;;;;8.41;87.05;99221.13;4938985;29;20063;-61
2022/12/25 00:51:18;;;;;;;183.68;65.35;;;;;;;8.91;86.47;99221.25;4939352;29;20093;-61
2022/12/25 00:53:54;;;;;;;189.23;65.05;;;;;;;8.95;85.33;99225.22;4947477;29;20062;-61
2022/12/25 00:56:49;;;;;;;184.60;66.53;;;;;;;8.75;85.75;99232.19;4928948;29;20555;-61
2022/12/25 00:59:24;;;;;;;175.23;65.50;;;;;;;8.99;85.86;99228.34;4929469;29;20110;-61
2022/12/25 01:02:22;;;;;;;174.90;65.55;;;;;;;9.09;85.42;99225.34;4935220;28;20143;-59
2022/12/25 01:04:57;;;;;;;194.30;67.65;;;;;;;9.31;85.35;99226.16;4945636;29;20125;-62
2022/12/25 01:07:46;;;;;;;192.43;67.68;;;;;;;9.21;85.39;99231.84;4947954;29;20063;-61
2022/12/25 01:10:28;;;;;;;203.55;72.82;;;;;;;9.12;85.74;99239.16;4937922;29;20122;-61
2022/12/25 01:13:17;;;;;;;197.25;70.25;;;;;;;9.27;84.86;99247.13;4935019;29;20530;-61
2022/12/25 01:15:59;;;;;;;195.43;71.80;;;;;;;9.22;85.30;99246.88;4927951;29;20059;-61
2022/12/25 01:18:48;;;;;;;195.57;70.75;;;;;;;9.47;84.99;99247.28;4939325;29;20052;-61
2022/12/25 01:21:30;;;;;;;219.80;79.13;;;;;;;9.57;83.65;99249.63;4942864;29;20073;-61
2022/12/25 01:24:19;;;;;;;206.43;78.72;;;;;;;9.45;83.19;99254.69;4930156;29;20063;-62
2022/12/25 01:27:01;;;;;;;215.38;76.45;;;;;;;9.47;84.00;99255.34;4927965;29;20051;-61
2022/12/25 01:29:50;;;;;;;225.75;80.40;;;;;;;9.51;84.05;99253.09;4936165;29;20452;-61
2022/12/25 01:32:32;;;;;;;229.10;82.30;;;;;;;9.62;84.23;99257.13;4936268;29;20043;-61
2022/12/25 01:35:27;;;;;;;222.80;81.72;;;;;;;8.94;85.17;99262.88;4946194;29;20051;-61
2022/12/25 01:38:02;;;;;;;232.75;83.80;;;;;;;9.23;85.18;99261.09;4945642;29;20061;-62
2022/12/25 01:40:51;;;;;;;213.32;78.07;;;;;;;9.16;84.96;99256.50;4939966;29;20059;-61
2022/12/25 01:43:40;;;;;;;217.32;80.10;;;;;;;9.30;84.68;99262.00;4940199;28;20059;-63
2022/12/25 01:46:31;;;;;;;217.95;79.28;;;;;;;9.56;83.90;99267.56;4927731;29;20107;-62
2022/12/25 01:49:22;;;;;;;214.45;82.50;;;;;;;9.75;83.75;99276.78;4945999;29;20054;-60
2022/12/25 01:52:13;;;;;;;212.02;81.47;;;;;;;9.38;83.21;99272.56;4938508;29;20043;-61
2022/12/25 01:55:10;;;;;;;216.15;79.35;;;;;;;9.28;84.23;99286.28;4932430;29;20055;-61
2022/12/25 01:57:52;;;;;;;227.18;81.80;;;;;;;9.59;83.35;99287.78;4930539;29;20106;-62
2022/12/25 02:00:42;;;;;;;204.57;75.72;;;;;;;9.58;83.79;99286.97;4947245;29;20077;-62
2022/12/25 02:03:31;;;;;;;198.70;76.22;;;;;;;9.61;83.90;99296.50;4943137;29;20041;-63
2022/12/25 02:06:14;;;;;;;199.02;76.47;;;;;;;8.95;85.22;99308.19;4928116;29;20060;-60
2022/12/25 02:09:03;;;;;;;190.52;74.10;;;;;;;9.34;84.58;99304.28;4927923;29;20111;-62
2022/12/25 02:11:58;;;;;;;202.82;76.65;;;;;;;9.28;84.22;99307.72;4930200;29;20058;-62
2022/12/25 02:14:50;;;;;;;191.35;74.97;;;;;;;9.47;83.65;99310.78;4935700;29;20066;-62
2022/12/25 02:17:49;;;;;;;192.48;75.15;;;;;;;9.72;82.72;99329.97;4928521;29;20051;-60
2022/12/25 02:21:02;;;;;;;179.35;72.90;;;;;;;9.17;84.31;99343.88;4936364;29;20106;-62
2022/12/25 02:23:48;;;;;;;187.65;72.25;;;;;;;9.25;83.67;99337.56;4942518;29;20062;-61
2022/12/25 02:26:59;;;;;;;182.52;70.68;;;;;;;9.06;84.68;99341.69;4927685;29;20056;-62
2022/12/25 02:29:58;;;;;;;180.00;69.35;;;;;;;8.72;85.50;99340.44;4938844;29;20114;-62
2022/12/25 02:36:06;;;;;;;166.57;67.80;;;;;;;8.70;85.45;99345.16;4926644;29;20052;-62
2022/12/25 02:42:20;;;;;;;176.30;67.80;;;;;;;9.11;84.20;99343.78;4933080;29;20134;-59
2022/12/25 03:07:18;;;;;;;146.05;56.47;;;;;;;9.21;83.76;99366.56;4948163;29;20055;-62
2022/12/25 03:13:18;;;;;;;119.75;51.72;;;;;;;9.26;84.43;99367.84;4940836;29;20426;-62
2022/12/25 03:28:31;;;;;;;137.30;57.38;;;;;;;9.44;83.97;99396.88;4939247;29;20082;-62
2022/12/25 03:31:31;;;;;;;136.65;55.33;;;;;;;9.17;85.13;99404.59;4938131;29;20085;-59
2022/12/25 04:37:45;;;;;;;294.75;94.63;;;;;;;10.56;81.65;99429.25;4933500;29;20055;-62
2022/12/25 04:40:27;;;;;;;289.05;94.43;;;;;;;10.91;80.77;99434.63;4936378;28;20498;-62
2022/12/25 04:43:16;;;;;;;296.67;97.63;;;;;;;11.17;79.77;99430.41;4937969;29;20110;-62
2022/12/25 04:46:12;;;;;;;291.95;98.63;;;;;;;11.25;78.97;99437.47;4939747;28;20823;-63
2022/12/25 04:48:47;;;;;;;297.50;103.85;;;;;;;11.32;78.66;99425.72;4935292;29;20047;-63
2022/12/25 04:51:37;;;;;;;323.50;107.82;;;;;;;11.12;79.39;99432.84;4938365;29;20066;-64
2022/12/25 04:54:26;;;;;;;307.95;106.25;;;;;;;11.13;78.74;99429.97;4941260;29;20106;-62
2022/12/25 04:57:08;;;;;;;309.40;106.90;;;;;;;11.38;78.30;99432.13;4937057;29;20055;-64
2022/12/25 04:59:57;;;;;;;314.08;106.93;;;;;;;11.79;77.83;99433.06;4936418;29;20054;-63
2022/12/25 05:02:39;;;;;;;326.48;107.47;;;;;;;11.51;77.93;99431.38;4923431;29;20043;-64
2022/12/25 05:05:28;;;;;;;305.35;105.15;;;;;;;11.61;77.74;99420.22;4937628;29;20051;-62
2022/12/25 05:08:10;;;;;;;299.70;103.00;;;;;;;11.52;77.93;99411.50;4941450;29;20062;-64
2022/12/25 05:10:59;;;;;;;288.15;99.20;;;;;;;11.73;77.20;99421.25;4944365;29;20236;-63
2022/12/25 05:13:54;;;;;;;274.92;98.78;;;;;;;11.77;77.99;99425.22;4931445;29;20059;-63
2022/12/25 05:16:29;;;;;;;282.25;98.57;;;;;;;11.91;76.97;99431.47;4938669;29;20066;-63
2022/12/25 05:19:25;;;;;;;286.35;97.43;;;;;;;11.57;76.81;99419.78;4941020;29;20047;-63
2022/12/25 05:22:01;;;;;;;268.42;96.95;;;;;;;11.76;76.84;99423.56;4933676;29;20559;-63
2022/12/25 05:24:50;;;;;;;279.75;98.97;;;;;;;12.00;76.61;99427.56;4942450;29;20475;-62
2022/12/25 05:27:32;;;;;;;271.17;97.75;;;;;;;12.16;75.99;99422.81;4941061;29;20155;-62
2022/12/25 05:30:21;;;;;;;263.02;93.72;;;;;;;12.37;76.41;99419.91;4936111;29;20058;-62
2022/12/25 05:33:10;;;;;;;265.58;97.28;;;;;;;12.18;75.39;99420.75;4934819;29;20061;-63
2022/12/25 05:35:52;;;;;;;258.38;93.20;;;;;;;12.17;74.30;99419.91;4936239;29;20141;-61
2022/12/25 05:38:42;;;;;;;241.32;90.03;;;;;;;12.25;76.04;99410.81;4934633;29;20059;-62
2022/12/25 05:41:24;;;;;;;251.23;94.25;;;;;;;12.23;75.50;99397.56;4946464;29;20143;-63
2022/12/25 05:44:20;;;;;;;252.73;92.25;;;;;;;12.14;75.83;99391.53;4927446;28;20065;-62
2022/12/25 05:47:09;;;;;;;225.43;90.78;;;;;;;11.74;75.17;99387.97;4930220;29;20048;-64
2022/12/25 05:49:58;;;;;;;240.93;88.88;;;;;;;12.38;75.12;99394.66;4936847;29;20429;-64
2022/12/25 05:52:41;;;;;;;243.00;86.65;;;;;;;12.79;72.94;99390.00;4941810;29;20066;-62
2022/12/25 05:55:30;;;;;;;257.50;89.93;;;;;;;12.61;73.51;99388.81;4914786;29;20515;-62
2022/12/25 05:58:25;;;;;;;233.10;86.30;;;;;;;12.80;72.46;99389.81;4935009;29;20051;-63
2022/12/25 06:01:01;;;;;;;223.95;82.82;;;;;;;12.59;73.27;99392.72;4936648;29;20047;-63
2022/12/25 06:03:58;;;;;;;212.48;80.60;;;;;;;12.77;73.01;99386.69;4931332;29;20086;-63
2022/12/25 06:06:33;;;;;;;217.13;81.65;;;;;;;12.95;71.61;99384.13;4919844;29;20055;-63
2022/12/25 06:09:22;;;;;;;206.38;76.30;;;;;;;13.49;71.58;99382.06;4942539;29;20059;-63
2022/12/25 06:12:04;;;;;;;205.85;79.68;;;;;;;13.53;69.02;99372.50;4933034;29;20062;-63
2022/12/25 06:14:53;;;;;;;206.70;78.18;;;;;;;13.80;68.87;99356.94;4936567;29;20067;-65
2022/12/25 06:17:42;;;;;;;192.10;76.88;;;;;;;13.73;68.98;99358.88;4936721;29;20086;-62
2022/12/25 06:20:37;;;;;;;190.68;75.50;;;;;;;13.93;68.16;99352.47;4933693;29;20134;-63
2022/12/25 06:23:14;;;;;;;195.77;77.90;;;;;;;14.04;68.12;99352.63;4928520;29;20051;-63
2022/12/25 06:26:12;;;;;;;200.57;75.93;;;;;;;14.66;67.56;99358.06;4932421;28;20142;-62
2022/12/25 06:28:48;;;;;;;214.07;79.13;;;;;;;14.86;65.94;99355.13;4933818;29;20079;-64
2022/12/25 06:31:37;;;;;;;207.75;77.50;;;;;;;14.70;65.34;99352.22;4933150;29;20071;-62
2022/12/25 06:34:19;;;;;;;194.88;77.20;;;;;;;14.72;66.44;99353.63;4914506;29;20051;-62
2022/12/25 06:37:15;;;;;;;200.32;76.07;;;;;;;14.44;66.01;99349.50;4934721;29;20047;-62
2022/12/25 06:39:50;;;;;;;179.00;73.68;;;;;;;14.48;66.61;99349.91;4930719;29;20043;-64
2022/12/25 06:42:45;;;;;;;175.90;75.70;;;;;;;14.88;66.95;99352.19;4932396;29;20574;-63
2022/12/25 06:45:27;;;;;;;198.90;79.13;;;;;;;15.34;64.71;99341.81;4933046;28;20039;-63
2022/12/25 06:48:16;;;;;;;174.07;75.53;;;;;;;15.13;64.61;99340.44;4918749;29;20711;-62
2022/12/25 06:50:58;;;;;;;189.82;76.75;;;;;;;15.15;63.37;99341.88;4935322;29;20051;-62
2022/12/25 06:53:47;;;;;;;194.15;76.50;;;;;;;15.28;63.14;99348.97;4936942;29;20062;-62
2022/12/25 06:56:30;;;;;;;180.73;76.35;;;;;;;15.12;63.17;99339.63;4936851;29;20059;-64
2022/12/25 06:59:19;;;;;;;168.68;71.25;;;;;;;15.32;62.10;99344.75;4945657;29;20062;-62
2022/12/25 07:02:22;;;;;;;181.77;76.72;;;;;;;15.26;62.97;99345.66;4935983;29;20072;-63
2022/12/25 07:04:59;;;;;;;175.63;77.03;;;;;;;15.34;63.90;99336.41;4929399;29;20040;-63
2022/12/25 07:07:48;;;;;;;173.10;76.88;;;;;;;15.32;63.52;99331.22;4933912;29;20388;-65
2022/12/25 07:10:30;;;;;;;179.25;74.05;;;;;;;14.98;64.26;99338.97;4938849;29;20051;-67
2022/12/25 07:13:26;;;;;;;164.75;70.97;;;;;;;15.34;64.10;99326.41;4937427;29;20533;-66
2022/12/25 07:16:03;;;;;;;168.52;75.72;;;;;;;15.32;63.33;99317.69;4938458;29;20729;-65
2022/12/25 07:18:58;;;;;;;182.60;76.00;;;;;;;15.62;62.37;99314.97;4934916;29;20051;-66
2022/12/25 07:21:34;;;;;;;179.52;76.55;;;;;;;15.42;62.36;99309.88;4929438;29;20058;-64
2022/12/25 07:24:30;;;;;;;185.50;78.25;;;;;;;15.65;61.06;99309.09;4920718;29;20074;-65
2022/12/25 07:27:07;;;;;;;180.52;78.78;;;;;;;15.38;60.90;99300.56;4938121;29;20108;-65
2022/12/25 07:30:02;;;;;;;180.75;82.80;;;;;;;15.00;61.54;99292.78;4932497;29;20388;-65
2022/12/25 07:32:38;;;;;;;189.45;83.97;;;;;;;15.48;62.42;99294.59;4930305;29;20091;-66
2022/12/25 07:35:36;;;;;;;196.45;86.30;;;;;;;15.63;61.00;99280.66;4944296;29;20114;-65
2022/12/25 07:38:12;;;;;;;201.68;90.68;;;;;;;15.64;61.52;99280.38;4945887;29;20051;-66
2022/12/25 07:41:07;;;;;;;218.05;92.35;;;;;;;15.65;61.66;99268.53;4933252;29;20138;-63
2022/12/25 07:43:43;;;;;;;236.60;96.70;;;;;;;15.80;62.35;99276.22;4940110;29;20055;-64
2022/12/25 07:46:38;;;;;;;234.93;95.72;;;;;;;16.18;62.77;99266.81;4939388;28;20067;-65
2022/12/25 07:49:14;;;;;;;240.00;97.57;;;;;;;16.30;61.15;99264.06;4937172;29;20051;-63
2022/12/25 07:52:03;;;;;;;257.50;99.43;;;;;;;16.32;61.56;99259.25;4940761;29;20138;-65
2022/12/25 07:54:45;;;;;;;222.80;95.47;;;;;;;16.64;60.42;99254.22;4933441;29;20630;-66
2022/12/25 07:57:40;;;;;;;220.82;92.53;;;;;;;16.02;60.41;99251.25;4940616;29;20067;-65
2022/12/25 08:00:16;;;;;;;200.70;87.07;;;;;;;16.12;59.92;99240.66;4935360;29;20507;-61
2022/12/25 08:03:14;;;;;;;213.35;90.22;;;;;;;16.07;61.29;99232.44;4939477;29;20055;-60
2022/12/25 08:05:50;;;;;;;190.32;81.00;;;;;;;16.01;59.81;99233.34;4934232;29;20048;-62
2022/12/25 08:08:45;;;;;;;184.68;73.47;;;;;;;15.75;59.64;99230.09;4941283;29;20055;-65
2022/12/25 08:11:21;;;;;;;162.57;73.40;;;;;;;16.03;59.27;99225.81;4939091;29;20047;-64
2022/12/25 08:14:10;;;;;;;175.90;73.33;;;;;;;16.15;58.56;99217.72;4933089;29;20138;-65
2022/12/25 08:16:52;;;;;;;168.52;72.82;;;;;;;16.45;58.59;99228.34;4946653;29;20059;-63
2022/12/25 08:19:41;;;;;;;143.98;68.32;;;;;;;16.07;58.31;99237.84;4936200;29;20047;-63
2022/12/25 08:22:30;;;;;;;146.98;63.38;;;;;;;16.18;57.42;99218.06;4940818;29;20150;-64
2022/12/25 08:25:19;;;;;;;152.30;65.20;;;;;;;16.30;57.60;99222.59;4939437;29;20118;-66
2022/12/25 08:28:08;;;;;;;146.73;64.07;;;;;;;16.24;57.47;99224.38;4930787;29;20652;-65
2022/12/25 08:30:50;;;;;;;160.48;65.13;;;;;;;16.27;57.33;99217.69;4935021;29;20065;-64
2022/12/25 08:33:39;;;;;;;162.10;68.00;;;;;;;16.11;57.73;99216.50;4940100;29;20071;-66
2022/12/25 08:36:22;;;;;;;160.15;66.32;;;;;;;16.20;58.69;99232.19;4927559;29;20155;-66
2022/12/25 08:39:11;;;;;;;156.18;63.85;;;;;;;16.31;59.23;99221.56;4911924;29;20075;-64
2022/12/25 08:42:06;;;;;;;150.80;63.55;;;;;;;16.36;57.29;99221.66;4936734;29;20051;-65
2022/12/25 08:44:41;;;;;;;148.30;63.13;;;;;;;16.20;56.83;99223.22;4935125;28;20055;-66
2022/12/25 08:47:36;;;;;;;142.93;60.88;;;;;;;16.53;57.83;99230.69;4935252;29;20075;-67
2022/12/25 08:50:11;;;;;;;132.60;56.22;;;;;;;16.22;56.50;99226.50;4934847;29;20053;-66
2022/12/25 08:53:06;;;;;;;121.97;55.75;;;;;;;16.32;56.87;99223.22;4948897;29;20145;-67
2022/12/25 08:55:42;;;;;;;130.65;56.45;;;;;;;16.46;56.85;99216.44;4938596;29;20084;-66
2022/12/25 08:58:38;;;;;;;136.20;57.35;;;;;;;16.44;56.73;99221.28;4940544;29;20570;-64
2022/12/25 09:01:14;;;;;;;138.43;57.28;;;;;;;16.39;57.92;99229.28;4931063;29;20070;-65
2022/12/25 09:04:09;;;;;;;140.18;58.55;;;;;;;16.52;57.91;99226.31;4929106;29;20425;-66
2022/12/25 09:06:44;;;;;;;128.35;57.83;;;;;;;16.09;56.94;99229.47;4915408;29;20170;-66
2022/12/25 09:09:34;;;;;;;142.20;60.73;;;;;;;16.01;57.23;99227.94;4939484;28;20059;-66
2022/12/25 09:12:23;;;;;;;140.80;57.53;;;;;;;16.09;57.99;99233.03;4928400;29;20146;-65
2022/12/25 09:15:06;;;;;;;134.77;57.55;;;;;;;16.11;57.68;99216.50;4946190;29;20075;-67
2022/12/25 09:17:55;;;;;;;125.35;54.67;;;;;;;16.17;57.65;99224.53;4942165;29;20754;-66
2022/12/25 09:20:37;;;;;;;133.68;55.63;;;;;;;15.90;58.13;99217.94;4933540;29;20039;-66
2022/12/25 09:23:26;;;;;;;115.10;52.65;;;;;;;15.63;59.81;99215.72;4943232;29;20090;-65
2022/12/25 09:26:23;;;;;;;117.50;53.38;;;;;;;15.51;59.56;99212.97;4938418;29;20047;-64
2022/12/25 09:28:59;;;;;;;119.65;54.55;;;;;;;15.79;59.79;99209.59;4936421;29;20175;-65
2022/12/25 09:31:54;;;;;;;124.40;54.47;;;;;;;15.81;61.12;99212.09;4946385;29;20134;-65
2022/12/25 09:34:30;;;;;;;130.73;55.28;;;;;;;15.77;60.82;99206.31;4928795;29;20198;-65
2022/12/25 09:37:19;;;;;;;116.65;53.80;;;;;;;15.80;58.97;99203.16;4941001;29;20146;-65
2022/12/25 09:40:09;;;;;;;106.95;53.03;;;;;;;15.51;59.34;99218.38;4942677;29;20165;-59
2022/12/25 09:43:06;;;;;;;115.20;54.63;;;;;;;15.73;61.16;99215.97;4937592;29;20043;-66
2022/12/25 09:45:48;;;;;;;114.57;54.33;;;;;;;15.83;59.71;99221.59;4940054;28;20047;-65
2022/12/25 09:48:41;;;;;;;108.55;53.50;;;;;;;15.78;60.22;99223.38;4936317;29;20071;-65
2022/12/25 09:51:26;;;;;;;122.68;56.47;;;;;;;15.87;59.22;99211.13;4938131;29;20047;-67
2022/12/25 09:54:34;;;;;;;116.50;54.25;;;;;;;15.91;61.58;99206.88;4922689;29;20062;-64
2022/12/25 09:57:17;;;;;;;128.00;59.00;;;;;;;15.62;61.56;99197.81;4938258;29;20741;-65
2022/12/25 10:00:06;;;;;;;115.20;55.25;;;;;;;15.45;62.45;99203.91;4940809;29;20059;-66
2022/12/25 10:03:15;;;;;;;116.00;55.92;;;;;;;15.59;62.82;99214.50;4940065;29;20058;-65
2022/12/25 10:06:32;;;;;;;126.20;55.67;;;;;;;15.75;62.18;99208.44;4936659;28;20137;-64
2022/12/25 10:09:31;;;;;;;117.70;56.22;;;;;;;15.76;60.48;99206.53;4937088;29;20051;-64
2022/12/25 10:12:33;;;;;;;124.68;55.05;;;;;;;15.72;61.00;99210.75;4939326;29;20043;-64
2022/12/25 10:15:44;;;;;;;116.40;55.13;;;;;;;15.75;60.42;99205.72;4934752;29;20547;-64
2022/12/25 10:18:59;;;;;;;118.90;57.13;;;;;;;15.60;61.17;99214.28;4938423;29;20043;-65
2022/12/25 10:21:53;;;;;;;126.32;56.05;;;;;;;15.69;61.24;99206.66;4940123;29;20113;-64
2022/12/25 10:24:52;;;;;;;118.45;56.22;;;;;;;15.63;61.97;99204.88;4929624;29;20065;-64
2022/12/25 10:27:40;;;;;;;124.60;58.55;;;;;;;15.66;62.42;99204.41;4933902;29;20036;-66
2022/12/25 10:30:31;;;;;;;120.32;57.60;;;;;;;15.76;62.42;99199.28;4931757;29;20047;-65
2022/12/25 10:33:14;;;;;;;122.82;57.25;;;;;;;15.65;62.67;99197.34;4932515;29;20039;-63
2022/12/25 10:36:05;;;;;;;127.10;61.67;;;;;;;15.44;62.34;99193.34;4913679;29;20055;-66
2022/12/25 10:38:48;;;;;;;128.32;59.88;;;;;;;15.47;64.19;99190.97;4927421;29;20063;-65
2022/12/25 10:42:04;;;;;;;134.48;63.17;;;;;;;15.31;63.95;99183.56;4944467;29;20051;-65
2022/12/25 10:45:07;;;;;;;131.85;61.80;;;;;;;15.10;63.67;99178.72;4942355;28;20062;-66
2022/12/25 10:48:13;;;;;;;125.93;62.55;;;;;;;15.38;64.92;99178.03;4937224;29;20066;-65
2022/12/25 10:50:49;;;;;;;134.48;62.80;;;;;;;15.18;65.24;99181.06;4934420;29;20056;-66
2022/12/25 10:53:49;;;;;;;141.98;64.90;;;;;;;15.35;64.73;99186.63;4937184;29;20806;-67
2022/12/25 10:56:25;;;;;;;134.05;65.10;;;;;;;15.14;64.58;99185.31;4591396;29;10001270;-64
2022/12/25 10:59:14;;;;;;;138.40;65.43;;;;;;;15.33;64.36;99188.75;4938988;28;20059;-62
2022/12/25 11:02:18;;;;;;;133.48;64.70;;;;;;;15.40;65.24;99189.44;4937156;29;20785;-64
2022/12/25 11:05:17;;;;;;;134.07;66.25;;;;;;;15.38;65.34;99200.50;4935940;29;20052;-63
2022/12/25 11:07:54;;;;;;;140.23;65.95;;;;;;;15.47;65.76;99204.50;4928910;29;20059;-66
2022/12/25 11:10:43;;;;;;;136.00;66.18;;;;;;;15.45;64.79;99197.69;4936897;29;20495;-66
2022/12/25 11:13:35;;;;;;;136.60;67.13;;;;;;;15.47;63.96;99184.75;4935401;29;20511;-66
2022/12/25 11:16:38;;;;;;;146.88;68.28;;;;;;;15.41;66.10;99174.88;4940906;29;20524;-65
2022/12/25 11:19:27;;;;;;;144.82;65.60;;;;;;;15.52;64.27;99165.13;4938805;29;20142;-62
2022/12/25 11:22:18;;;;;;;136.10;66.70;;;;;;;15.52;65.63;99157.00;4935265;29;20055;-63
2022/12/25 11:25:00;;;;;;;131.43;66.55;;;;;;;15.47;64.77;99155.00;4940397;29;20051;-66
2022/12/25 11:28:12;;;;;;;141.70;66.07;;;;;;;15.47;66.61;99163.91;4907396;29;20070;-63
2022/12/25 11:30:54;;;;;;;145.98;69.40;;;;;;;15.26;66.11;99169.91;4928195;29;20048;-64
2022/12/25 11:33:52;;;;;;;149.77;67.80;;;;;;;15.35;66.22;99181.22;4928897;29;20060;-64
2022/12/25 11:36:44;;;;;;;157.68;68.65;;;;;;;15.41;65.65;99186.50;4930701;29;20040;-70
2022/12/25 11:39:39;;;;;;;151.43;66.63;;;;;;;15.40;66.31;99189.44;4927440;29;20547;-68
2022/12/25 11:42:33;;;;;;;140.35;68.18;;;;;;;15.35;65.71;99186.63;4928575;29;20471;-66
2022/12/25 11:45:41;;;;;;;137.52;68.57;;;;;;;15.45;66.32;99182.28;4928684;28;20047;-66
2022/12/25 11:48:36;;;;;;;151.82;71.80;;;;;;;15.39;65.48;99166.97;4929534;29;20079;-65
2022/12/25 11:51:26;;;;;;;140.05;70.72;;;;;;;15.49;64.60;99162.88;4937985;29;20053;-66
2022/12/25 11:54:26;;;;;;;151.75;73.80;;;;;;;15.48;64.41;99172.88;4915099;29;20858;-66
2022/12/25 11:57:17;;;;;;;142.82;70.50;;;;;;;15.19;66.32;99169.19;4931863;29;20048;-64
2022/12/25 12:00:05;;;;;;;146.73;71.47;;;;;;;15.31;66.78;99185.44;4931170;29;20059;-68
2022/12/25 12:03:07;;;;;;;142.15;70.25;;;;;;;15.04;67.25;99189.41;4933288;29;20055;-67
2022/12/25 12:05:57;;;;;;;147.90;73.78;;;;;;;14.91;67.41;99200.41;4931129;29;20066;-65
2022/12/25 12:08:47;;;;;;;148.82;75.75;;;;;;;14.92;67.50;99214.72;4931810;29;20165;-64
2022/12/25 12:11:47;;;;;;;146.80;75.13;;;;;;;15.12;67.82;99214.44;4931168;29;20060;-63
2022/12/25 12:14:47;;;;;;;161.10;77.22;;;;;;;15.07;66.19;99215.13;4927304;29;20062;-68
2022/12/25 12:17:36;;;;;;;153.07;76.78;;;;;;;15.11;67.02;99227.13;4929274;29;20056;-69
2022/12/25 12:20:40;;;;;;;152.75;76.53;;;;;;;14.88;67.52;99225.16;4930395;29;20382;-65
2022/12/25 12:23:34;;;;;;;155.13;74.20;;;;;;;14.68;69.30;99231.69;4916096;29;20486;-65
2022/12/25 12:26:26;;;;;;;155.18;77.03;;;;;;;14.65;68.99;99237.53;4926987;29;20047;-64
2022/12/25 12:29:32;;;;;;;160.35;76.38;;;;;;;14.46;69.84;99230.47;4930806;29;20110;-64
2022/12/25 12:32:33;;;;;;;164.02;81.53;;;;;;;14.52;70.25;99236.84;4929084;29;20152;-66
2022/12/25 12:35:30;;;;;;;154.40;80.00;;;;;;;14.71;68.53;99241.19;4929604;29;20110;-63
2022/12/25 12:38:26;;;;;;;170.38;79.43;;;;;;;14.63;68.13;99247.72;4592888;28;10001738;-67
2022/12/25 12:41:17;;;;;;;163.43;74.93;;;;;;;14.74;67.27;99251.56;4937088;29;20150;-65
2022/12/25 12:44:10;;;;;;;161.85;77.57;;;;;;;14.82;67.38;99247.72;4938729;28;20090;-66
2022/12/25 12:46:55;;;;;;;160.40;78.70;;;;;;;14.84;67.83;99238.31;4924150;29;20151;-66
2022/12/25 12:49:44;;;;;;;160.65;74.82;;;;;;;14.78;67.41;99243.81;4944101;29;20127;-67
2022/12/25 12:52:37;;;;;;;165.82;76.07;;;;;;;14.76;67.95;99243.22;4943549;29;21080;-67
2022/12/25 12:55:41;;;;;;;166.02;79.75;;;;;;;14.66;67.83;99252.69;4940188;29;20047;-64
2022/12/25 12:58:48;;;;;;;156.73;75.03;;;;;;;14.62;68.65;99256.09;4908850;29;20055;-66
2022/12/25 13:01:57;;;;;;;164.18;77.43;;;;;;;14.71;68.90;99262.00;4934541;29;20058;-66
2022/12/25 13:04:48;;;;;;;160.93;76.38;;;;;;;14.55;69.68;99237.22;4932010;29;20102;-69
2022/12/25 13:07:43;;;;;;;167.45;81.43;;;;;;;14.53;69.18;99243.91;4938045;29;20067;-66
2022/12/25 13:10:38;;;;;;;163.18;77.95;;;;;;;14.48;69.76;99245.41;4944757;29;20656;-67
2022/12/25 13:13:41;;;;;;;166.68;80.82;;;;;;;14.32;69.77;99254.13;4943815;29;20043;-64
2022/12/25 13:16:25;;;;;;;159.88;79.15;;;;;;;14.21;70.41;99231.38;4940414;29;20051;-64
2022/12/25 13:19:24;;;;;;;161.52;76.45;;;;;;;13.97;71.51;99227.72;4938974;29;20488;-63
2022/12/25 13:22:21;;;;;;;165.27;78.00;;;;;;;14.02;71.25;99225.16;4942036;28;20050;-64
2022/12/25 13:25:20;;;;;;;160.43;77.87;;;;;;;14.00;71.80;99250.72;4941346;29;20047;-61
2022/12/25 13:28:03;;;;;;;176.02;78.38;;;;;;;14.10;71.31;99243.75;4941323;29;20059;-60
2022/12/25 13:30:52;;;;;;;159.90;77.88;;;;;;;14.09;71.76;99238.59;4941987;29;20043;-62
2022/12/25 13:33:34;;;;;;;164.00;80.95;;;;;;;13.92;72.08;99243.72;4937818;29;20052;-62
2022/12/25 13:36:23;;;;;;;161.48;79.80;;;;;;;13.84;72.48;99244.84;4935877;29;20137;-63
2022/12/25 13:39:13;;;;;;;156.85;77.55;;;;;;;13.79;73.02;99249.25;4938846;29;20138;-64
2022/12/25 13:42:05;;;;;;;166.45;77.75;;;;;;;13.68;73.70;99258.88;4930772;29;20463;-62
2022/12/25 13:44:52;;;;;;;145.85;76.30;;;;;;;13.57;73.50;99257.75;4932508;29;20055;-62
2022/12/25 13:47:49;;;;;;;155.32;76.47;;;;;;;13.58;73.31;99251.28;4919319;29;20059;-64
2022/12/25 13:50:33;;;;;;;151.23;76.38;;;;;;;13.62;73.12;99271.41;4917748;29;20063;-62
2022/12/25 13:53:28;;;;;;;143.07;75.03;;;;;;;13.70;73.31;99273.00;4904795;29;20058;-62
2022/12/25 13:56:04;;;;;;;168.27;78.35;;;;;;;13.39;74.39;99265.75;4917908;29;20491;-64
2022/12/25 13:58:53;;;;;;;155.65;78.22;;;;;;;13.55;73.96;99277.88;4918696;29;20064;-64
2022/12/25 14:01:35;;;;;;;156.93;80.55;;;;;;;13.52;73.66;99282.66;4914411;29;20527;-63
2022/12/25 14:04:32;;;;;;;167.13;82.40;;;;;;;13.54;73.33;99276.25;4917062;29;20056;-63
2022/12/25 14:07:10;;;;;;;168.40;83.20;;;;;;;13.30;74.40;99279.53;4915489;29;20075;-62
2022/12/25 14:10:09;;;;;;;158.00;80.13;;;;;;;13.30;74.49;99267.91;4917455;29;20052;-66
2022/12/25 14:12:48;;;;;;;166.60;81.60;;;;;;;13.26;74.58;99283.66;4914464;29;20055;-63
2022/12/25 14:15:38;;;;;;;172.13;78.57;;;;;;;13.14;75.23;99285.38;4924267;29;20154;-63
2022/12/25 14:18:24;;;;;;;178.57;83.70;;;;;;;13.23;75.03;99277.88;4895473;29;20135;-63
2022/12/25 14:21:29;;;;;;;174.20;82.95;;;;;;;13.17;74.49;99281.44;4913636;29;20625;-62
2022/12/25 14:24:14;;;;;;;169.75;83.95;;;;;;;13.20;75.11;99284.50;4907197;29;20662;-62
2022/12/25 14:27:16;;;;;;;173.63;83.57;;;;;;;13.16;74.15;99286.00;4908237;29;20056;-64
2022/12/25 14:30:06;;;;;;;169.90;82.75;;;;;;;13.04;74.76;99285.84;4923659;29;20048;-62
2022/12/25 14:32:52;;;;;;;171.88;84.60;;;;;;;13.29;74.39;99287.78;4917941;29;20122;-65
2022/12/25 14:35:41;;;;;;;181.55;85.72;;;;;;;13.31;74.04;99281.16;4922359;29;20055;-64
2022/12/25 14:38:32;;;;;;;168.93;85.38;;;;;;;13.15;74.46;99291.63;4914250;29;20052;-65